createdAt,value
2018-06-15T00:00:56.870Z,92.90
2018-06-15T00:01:56.641Z,96.20
2018-06-15T00:03:20.104Z,89.20
2018-06-15T00:04:21.251Z,85.30
2018-06-15T00:05:20.122Z,91.60
2018-06-15T00:06:20.567Z,92.40
2018-06-15T00:07:20.702Z,90.50
2018-06-15T00:08:42.625Z,81.60
2018-06-15T00:09:46.320Z,79.40
2018-06-15T00:10:43.561Z,81.70
2018-06-15T00:11:42.577Z,85.60
2018-06-15T00:12:43.983Z,89.90
2018-06-15T00:13:43.341Z,87.80
2018-06-15T00:14:44.121Z,90.60
2018-06-15T00:16:05.361Z,90.10
2018-06-15T00:17:06.543Z,85.80
2018-06-15T00:18:05.808Z,86.20
2018-06-15T00:19:06.868Z,86.80
2018-06-15T00:20:06.590Z,90.50
2018-06-15T00:21:06.402Z,81.90
2018-06-15T00:22:05.503Z,80.70
2018-06-15T00:23:05.395Z,89.70
2018-06-15T00:24:05.566Z,95.90
2018-06-15T00:25:29.750Z,85.30
2018-06-15T00:26:49.910Z,86.90
2018-06-15T00:27:51.421Z,86.50
2018-06-15T00:28:50.558Z,90.70
2018-06-15T00:29:50.857Z,89.20
2018-06-15T00:30:51.035Z,83.90
2018-06-15T00:31:51.141Z,84.30
2018-06-15T00:33:35.074Z,82.90
2018-06-15T00:34:35.971Z,83.90
2018-06-15T00:35:58.551Z,84.60
2018-06-15T00:36:58.340Z,89.20
2018-06-15T00:37:58.370Z,90.20
2018-06-15T00:38:58.390Z,86.20
2018-06-15T00:39:58.730Z,81.70
2018-06-15T00:40:59.320Z,80.00
2018-06-15T00:41:59.026Z,86.20
2018-06-15T00:42:59.246Z,84.30
2018-06-15T00:43:59.002Z,84.70
2018-06-15T00:44:59.754Z,86.50
2018-06-15T00:45:59.640Z,83.90
2018-06-15T00:46:58.214Z,88.10
2018-06-15T00:47:59.274Z,85.60
2018-06-15T00:48:58.619Z,86.20
2018-06-15T00:49:58.965Z,93.80
2018-06-15T00:50:59.366Z,86.10
2018-06-15T00:51:57.821Z,98.30
2018-06-15T00:52:58.544Z,104.60
2018-06-15T00:53:58.763Z,92.70
2018-06-15T00:54:58.399Z,89.70
2018-06-15T00:55:58.368Z,92.60
2018-06-15T00:56:58.102Z,90.00
2018-06-15T00:57:58.949Z,94.00
2018-06-15T00:58:58.815Z,93.00
2018-06-15T00:59:58.771Z,96.70
2018-06-15T01:00:58.969Z,88.10
2018-06-15T01:02:23.472Z,105.30
2018-06-15T01:03:23.440Z,93.80
2018-06-15T01:04:23.506Z,107.10
2018-06-15T01:05:44.883Z,100.60
2018-06-15T01:06:46.049Z,114.90
2018-06-15T01:08:07.238Z,105.90
2018-06-15T01:09:29.556Z,118.60
2018-06-15T01:10:29.575Z,105.70
2018-06-15T01:11:30.726Z,109.20
2018-06-15T01:12:30.441Z,118.90
2018-06-15T01:13:30.398Z,118.50
2018-06-15T01:14:30.177Z,127.10
2018-06-15T01:15:30.264Z,127.50
2018-06-15T01:16:51.942Z,116.60
2018-06-15T01:17:52.218Z,123.40
2018-06-15T01:19:13.901Z,106.00
2018-06-15T01:20:14.350Z,100.50
2018-06-15T01:21:38.090Z,107.30
2018-06-15T01:22:38.288Z,97.50
2018-06-15T01:23:38.235Z,99.10
2018-06-15T01:24:37.896Z,98.80
2018-06-15T01:25:38.633Z,94.00
2018-06-15T01:26:38.803Z,98.60
2018-06-15T01:27:38.701Z,95.70
2018-06-15T01:28:38.859Z,86.70
2018-06-15T01:30:00.236Z,91.30
2018-06-15T01:31:01.027Z,99.90
2018-06-15T01:32:01.096Z,93.20
2018-06-15T01:33:00.814Z,92.80
2018-06-15T01:34:00.812Z,93.20
2018-06-15T01:35:01.043Z,88.90
2018-06-15T01:36:22.462Z,92.50
2018-06-15T01:37:46.594Z,86.30
2018-06-15T01:38:47.507Z,90.70
2018-06-15T01:40:33.889Z,93.10
2018-06-15T01:41:31.941Z,95.00
2018-06-15T01:42:31.496Z,87.80
2018-06-15T01:43:52.913Z,90.30
2018-06-15T01:44:53.960Z,90.60
2018-06-15T01:45:52.940Z,92.70
2018-06-15T01:46:53.805Z,93.90
2018-06-15T01:47:53.805Z,99.00
2018-06-15T01:48:53.844Z,100.30
2018-06-15T01:49:53.820Z,101.40
2018-06-15T01:50:53.500Z,114.80
2018-06-15T01:51:53.331Z,105.40
2018-06-15T01:52:54.100Z,100.50
2018-06-15T01:53:53.266Z,103.10
2018-06-15T01:54:53.775Z,103.80
2018-06-15T01:55:53.799Z,104.40
2018-06-15T01:56:53.735Z,100.90
2018-06-15T01:57:54.635Z,105.30
2018-06-15T01:58:53.406Z,100.90
2018-06-15T01:59:54.269Z,107.60
2018-06-15T02:01:15.003Z,114.40
2018-06-15T02:02:15.141Z,110.80
2018-06-15T02:03:15.103Z,101.00
2018-06-15T02:04:37.527Z,108.30
2018-06-15T02:05:38.599Z,107.70
2018-06-15T02:06:37.627Z,112.00
2018-06-15T02:07:38.390Z,112.40
2018-06-15T02:08:38.278Z,107.60
2018-06-15T02:09:38.183Z,107.10
2018-06-15T02:10:38.667Z,114.80
2018-06-15T02:11:59.496Z,107.20
2018-06-15T02:13:00.064Z,102.60
2018-06-15T02:13:59.857Z,106.60
2018-06-15T02:14:59.838Z,100.50
2018-06-15T02:15:59.676Z,102.80
2018-06-15T02:16:59.949Z,102.70
2018-06-15T02:17:59.895Z,110.30
2018-06-15T02:19:22.085Z,100.50
2018-06-15T02:20:23.109Z,106.00
2018-06-15T02:21:23.122Z,114.60
2018-06-15T02:22:23.300Z,110.30
2018-06-15T02:23:44.972Z,104.30
2018-06-15T02:24:45.909Z,110.80
2018-06-15T02:25:45.776Z,104.00
2018-06-15T02:26:45.744Z,115.50
2018-06-15T02:27:45.717Z,113.70
2018-06-15T02:28:45.356Z,111.30
2018-06-15T02:29:44.966Z,106.60
2018-06-15T02:30:44.887Z,115.40
2018-06-15T02:31:46.564Z,117.20
2018-06-15T02:32:45.303Z,119.40
2018-06-15T02:33:45.862Z,124.40
2018-06-15T02:34:46.205Z,140.90
2018-06-15T02:35:44.897Z,152.50
2018-06-15T02:36:45.040Z,165.90
2018-06-15T02:37:45.193Z,158.80
2018-06-15T02:38:45.584Z,191.60
2018-06-15T02:39:45.588Z,159.40
2018-06-15T02:40:45.654Z,139.70
2018-06-15T02:41:46.661Z,150.80
2018-06-15T02:42:45.702Z,150.40
2018-06-15T02:44:14.910Z,142.90
2018-06-15T02:45:10.120Z,136.10
2018-06-15T02:46:10.073Z,140.20
2018-06-15T02:47:10.048Z,135.60
2018-06-15T02:48:32.545Z,142.70
2018-06-15T02:49:54.687Z,160.70
2018-06-15T02:50:54.524Z,125.60
2018-06-15T02:51:54.477Z,128.80
2018-06-15T02:52:54.510Z,127.70
2018-06-15T02:53:55.788Z,119.70
2018-06-15T02:54:55.200Z,119.00
2018-06-15T02:55:54.503Z,127.40
2018-06-15T02:56:54.638Z,120.40
2018-06-15T02:57:54.825Z,110.80
2018-06-15T02:58:54.984Z,110.80
2018-06-15T02:59:55.052Z,115.60
2018-06-15T03:00:55.128Z,116.60
2018-06-15T03:03:00.639Z,122.40
2018-06-15T03:04:01.395Z,111.40
2018-06-15T03:05:01.372Z,123.50
2018-06-15T03:06:01.431Z,112.90
2018-06-15T03:07:23.880Z,109.60
2018-06-15T03:08:23.765Z,117.50
2018-06-15T03:09:23.875Z,115.20
2018-06-15T03:10:24.030Z,117.00
2018-06-15T03:11:24.104Z,114.50
2018-06-15T03:12:24.102Z,119.60
2018-06-15T03:13:45.521Z,120.10
2018-06-15T03:14:45.499Z,120.10
2018-06-15T03:15:45.804Z,115.00
2018-06-15T03:16:45.475Z,121.80
2018-06-15T03:17:45.476Z,119.20
2018-06-15T03:19:30.021Z,130.50
2018-06-15T03:20:29.830Z,123.80
2018-06-15T03:21:29.664Z,137.00
2018-06-15T03:22:51.316Z,125.10
2018-06-15T03:24:13.950Z,123.70
2018-06-15T03:25:35.420Z,119.50
2018-06-15T03:26:36.490Z,115.60
2018-06-15T03:27:36.423Z,114.90
2018-06-15T03:28:36.187Z,112.60
2018-06-15T03:29:36.238Z,112.70
2018-06-15T03:30:36.381Z,117.60
2018-06-15T03:31:36.423Z,118.10
2018-06-15T03:32:36.488Z,113.10
2018-06-15T03:33:37.096Z,112.30
2018-06-15T03:34:58.211Z,102.40
2018-06-15T03:35:58.324Z,105.30
2018-06-15T03:36:58.363Z,102.60
2018-06-15T03:38:41.856Z,97.20
2018-06-15T03:39:42.715Z,100.00
2018-06-15T03:40:42.619Z,102.10
2018-06-15T03:41:42.575Z,102.30
2018-06-15T03:43:03.946Z,94.00
2018-06-15T03:44:04.723Z,104.30
2018-06-15T03:45:05.598Z,106.60
2018-06-15T03:46:04.527Z,100.60
2018-06-15T03:47:04.940Z,97.20
2018-06-15T03:48:04.925Z,105.50
2018-06-15T03:49:04.997Z,90.10
2018-06-15T03:50:26.491Z,101.70
2018-06-15T03:51:27.472Z,96.90
2018-06-15T03:52:27.469Z,94.40
2018-06-15T03:53:27.336Z,100.70
2018-06-15T03:54:27.676Z,101.60
2018-06-15T03:55:27.491Z,100.30
2018-06-15T03:56:27.456Z,95.60
2018-06-15T03:57:27.265Z,103.60
2018-06-15T03:58:27.374Z,97.20
2018-06-15T03:59:27.528Z,101.30
2018-06-15T04:00:28.439Z,102.30
2018-06-15T04:01:27.300Z,98.50
2018-06-15T04:02:27.055Z,95.30
2018-06-15T04:03:26.997Z,96.30
2018-06-15T04:04:27.037Z,97.60
2018-06-15T04:06:32.115Z,92.80
2018-06-15T04:07:33.638Z,94.10
2018-06-15T04:09:18.500Z,83.80
2018-06-15T04:10:40.363Z,98.00
2018-06-15T04:11:40.585Z,93.60
2018-06-15T04:12:40.557Z,97.40
2018-06-15T04:13:40.362Z,96.90
2018-06-15T04:14:40.769Z,100.90
2018-06-15T04:15:40.735Z,101.60
2018-06-15T04:17:02.838Z,106.90
2018-06-15T04:18:03.943Z,107.20
2018-06-15T04:19:03.723Z,101.40
2018-06-15T04:20:03.779Z,99.20
2018-06-15T04:21:03.771Z,99.80
2018-06-15T04:22:04.084Z,102.20
2018-06-15T04:23:03.168Z,109.30
2018-06-15T04:24:03.483Z,101.80
2018-06-15T04:25:04.063Z,102.70
2018-06-15T04:26:03.258Z,97.30
2018-06-15T04:27:03.454Z,100.00
2018-06-15T04:28:25.151Z,104.30
2018-06-15T04:29:25.208Z,103.50
2018-06-15T04:30:25.879Z,96.00
2018-06-15T04:31:26.071Z,102.50
2018-06-15T04:32:25.124Z,101.40
2018-06-15T04:33:46.460Z,96.60
2018-06-15T04:34:47.050Z,102.90
2018-06-15T04:35:46.683Z,96.90
2018-06-15T04:36:48.120Z,100.20
2018-06-15T04:37:47.874Z,108.40
2018-06-15T04:39:31.732Z,101.90
2018-06-15T04:40:31.698Z,92.70
2018-06-15T04:41:32.204Z,101.10
2018-06-15T04:42:53.222Z,94.80
2018-06-15T04:43:53.361Z,86.70
2018-06-15T04:44:53.371Z,80.40
2018-06-15T04:45:53.471Z,82.10
2018-06-15T04:46:54.227Z,84.30
2018-06-15T04:47:54.347Z,80.90
2018-06-15T04:48:53.505Z,85.40
2018-06-15T04:50:16.313Z,80.80
2018-06-15T04:51:15.440Z,86.20
2018-06-15T04:52:15.252Z,83.80
2018-06-15T04:53:15.179Z,79.50
2018-06-15T04:54:15.139Z,81.70
2018-06-15T04:55:16.374Z,83.70
2018-06-15T04:56:36.858Z,85.00
2018-06-15T04:57:40.769Z,83.60
2018-06-15T04:58:37.824Z,77.50
2018-06-15T04:59:59.438Z,84.10
2018-06-15T05:00:59.445Z,86.60
2018-06-15T05:01:59.774Z,82.60
2018-06-15T05:02:59.797Z,81.10
2018-06-15T05:03:59.988Z,84.60
2018-06-15T05:04:59.757Z,81.70
2018-06-15T05:05:59.872Z,81.50
2018-06-15T05:07:00.150Z,86.90
2018-06-15T05:08:00.390Z,93.70
2018-06-15T05:08:59.364Z,96.40
2018-06-15T05:10:22.511Z,90.30
2018-06-15T05:11:23.608Z,74.40
2018-06-15T05:12:22.515Z,69.20
2018-06-15T05:13:44.171Z,77.50
2018-06-15T05:14:44.293Z,74.70
2018-06-15T05:16:05.772Z,81.50
2018-06-15T05:17:06.631Z,70.90
2018-06-15T05:18:17.919Z,74.80
2018-06-15T05:19:06.938Z,73.10
2018-06-15T05:20:06.841Z,71.10
2018-06-15T05:21:06.724Z,79.40
2018-06-15T05:22:06.606Z,69.30
2018-06-15T05:23:06.539Z,76.20
2018-06-15T05:24:06.739Z,74.30
2018-06-15T05:25:06.979Z,75.90
2018-06-15T05:26:06.132Z,67.20
2018-06-15T05:27:28.771Z,77.10
2018-06-15T05:28:28.966Z,70.90
2018-06-15T05:29:51.565Z,77.60
2018-06-15T05:30:51.578Z,72.10
2018-06-15T05:31:51.704Z,72.70
2018-06-15T05:32:51.887Z,72.70
2018-06-15T05:33:51.885Z,68.40
2018-06-15T05:34:50.800Z,71.30
2018-06-15T05:36:12.354Z,66.30
2018-06-15T05:37:13.001Z,69.00
2018-06-15T05:38:34.749Z,71.90
2018-06-15T05:39:35.745Z,74.40
2018-06-15T05:40:35.816Z,69.30
2018-06-15T05:41:59.381Z,64.80
2018-06-15T05:42:59.102Z,66.40
2018-06-15T05:44:19.892Z,69.00
2018-06-15T05:45:20.130Z,65.10
2018-06-15T05:46:41.996Z,63.80
2018-06-15T05:47:43.744Z,61.20
2018-06-15T05:48:42.599Z,57.50
2018-06-15T05:49:42.779Z,67.90
2018-06-15T05:50:43.333Z,59.30
2018-06-15T05:51:42.448Z,61.10
2018-06-15T05:53:04.279Z,59.20
2018-06-15T05:54:04.124Z,64.40
2018-06-15T05:55:04.228Z,65.70
2018-06-15T05:56:04.436Z,62.90
2018-06-15T05:57:04.567Z,61.00
2018-06-15T05:58:05.365Z,65.30
2018-06-15T05:59:05.631Z,66.50
2018-06-15T06:00:04.679Z,69.60
2018-06-15T06:01:04.628Z,66.00
2018-06-15T06:02:04.926Z,70.60
2018-06-15T06:03:05.232Z,63.70
2018-06-15T06:04:05.811Z,60.60
2018-06-15T06:05:48.788Z,60.30
2018-06-15T06:06:49.266Z,64.50
2018-06-15T06:07:49.570Z,61.50
2018-06-15T06:09:56.369Z,57.90
2018-06-15T06:10:56.475Z,55.50
2018-06-15T06:11:56.822Z,60.50
2018-06-15T06:12:56.688Z,53.10
2018-06-15T06:13:56.593Z,50.40
2018-06-15T06:14:56.764Z,51.10
2018-06-15T06:15:57.634Z,50.70
2018-06-15T06:16:56.531Z,52.60
2018-06-15T06:18:18.758Z,55.50
2018-06-15T06:19:19.547Z,52.10
2018-06-15T06:20:20.696Z,48.20
2018-06-15T06:21:19.480Z,49.50
2018-06-15T06:22:19.342Z,51.40
2018-06-15T06:23:19.422Z,48.90
2018-06-15T06:24:19.059Z,48.60
2018-06-15T06:25:18.729Z,51.20
2018-06-15T06:26:19.264Z,51.50
2018-06-15T06:27:42.846Z,51.80
2018-06-15T06:28:42.908Z,51.70
2018-06-15T06:29:43.225Z,55.10
2018-06-15T06:30:43.364Z,46.40
2018-06-15T06:31:45.316Z,47.20
2018-06-15T06:32:43.315Z,54.50
2018-06-15T06:33:43.522Z,55.20
2018-06-15T06:34:43.561Z,51.90
2018-06-15T06:36:05.883Z,53.20
2018-06-15T06:37:28.047Z,57.40
2018-06-15T06:38:28.883Z,55.60
2018-06-15T06:39:28.814Z,50.90
2018-06-15T06:40:28.821Z,50.90
2018-06-15T06:41:28.859Z,53.60
2018-06-15T06:42:28.819Z,56.80
2018-06-15T06:43:53.838Z,52.70
2018-06-15T06:44:51.880Z,55.00
2018-06-15T06:45:52.137Z,54.50
2018-06-15T06:46:52.618Z,52.00
2018-06-15T06:48:36.862Z,51.00
2018-06-15T06:49:37.173Z,57.00
2018-06-15T06:51:00.043Z,49.70
2018-06-15T06:51:59.176Z,47.10
2018-06-15T06:52:59.281Z,50.40
2018-06-15T06:54:21.302Z,50.50
2018-06-15T06:55:21.152Z,44.20
2018-06-15T06:56:22.638Z,46.20
2018-06-15T06:57:23.634Z,45.80
2018-06-15T06:58:21.669Z,44.70
2018-06-15T06:59:21.360Z,50.40
2018-06-15T07:00:21.684Z,48.00
2018-06-15T07:01:21.541Z,46.70
2018-06-15T07:02:44.092Z,47.70
2018-06-15T07:03:44.746Z,45.80
2018-06-15T07:04:43.802Z,49.30
2018-06-15T07:05:44.436Z,46.50
2018-06-15T07:06:43.164Z,43.60
2018-06-15T07:07:44.278Z,47.50
2018-06-15T07:08:44.056Z,46.20
2018-06-15T07:10:07.621Z,46.30
2018-06-15T07:11:08.405Z,43.60
2018-06-15T07:12:08.310Z,43.20
2018-06-15T07:13:08.965Z,42.90
2018-06-15T07:14:08.273Z,44.50
2018-06-15T07:15:09.100Z,42.90
2018-06-15T07:16:08.154Z,45.20
2018-06-15T07:17:09.392Z,41.20
2018-06-15T07:18:08.389Z,43.10
2018-06-15T07:19:08.297Z,43.40
2018-06-15T07:20:31.555Z,43.20
2018-06-15T07:21:31.665Z,39.60
2018-06-15T07:22:53.496Z,44.80
2018-06-15T07:24:16.323Z,40.70
2018-06-15T07:25:17.763Z,41.80
2018-06-15T07:26:17.096Z,40.10
2018-06-15T07:27:17.916Z,39.40
2018-06-15T07:28:17.148Z,44.80
2018-06-15T07:29:17.642Z,44.10
2018-06-15T07:30:39.742Z,41.20
2018-06-15T07:32:02.034Z,40.60
2018-06-15T07:33:02.144Z,38.40
2018-06-15T07:34:02.163Z,36.90
2018-06-15T07:35:02.129Z,33.30
2018-06-15T07:36:02.303Z,36.90
2018-06-15T07:37:02.310Z,32.30
2018-06-15T07:38:02.381Z,34.90
2018-06-15T07:39:02.542Z,35.80
2018-06-15T07:40:02.773Z,35.90
2018-06-15T07:41:03.087Z,33.20
2018-06-15T07:42:44.426Z,37.10
2018-06-15T07:43:45.284Z,39.50
2018-06-15T07:44:45.493Z,36.60
2018-06-15T07:46:07.423Z,35.10
2018-06-15T07:47:29.441Z,39.10
2018-06-15T07:48:30.466Z,35.90
2018-06-15T07:49:30.392Z,34.40
2018-06-15T07:50:30.521Z,37.30
2018-06-15T07:51:29.883Z,38.00
2018-06-15T07:52:30.110Z,35.60
2018-06-15T07:53:30.274Z,34.90
2018-06-15T07:54:30.246Z,33.90
2018-06-15T07:55:30.147Z,33.70
2018-06-15T07:56:30.263Z,33.30
2018-06-15T07:57:30.402Z,30.70
2018-06-15T07:58:30.233Z,34.20
2018-06-15T07:59:30.181Z,33.80
2018-06-15T08:00:29.976Z,35.70
2018-06-15T08:01:29.774Z,35.60
2018-06-15T08:02:29.925Z,38.70
2018-06-15T08:03:29.794Z,35.40
2018-06-15T08:04:29.565Z,34.20
2018-06-15T08:05:29.240Z,33.50
2018-06-15T08:06:30.488Z,33.40
2018-06-15T08:07:30.261Z,32.90
2018-06-15T08:08:30.121Z,34.30
2018-06-15T08:09:30.088Z,34.10
2018-06-15T08:10:29.899Z,35.00
2018-06-15T08:11:29.791Z,33.10
2018-06-15T08:12:29.548Z,34.20
2018-06-15T08:13:29.674Z,36.70
2018-06-15T08:14:29.719Z,32.30
2018-06-15T08:15:29.833Z,35.10
2018-06-15T08:16:29.566Z,27.20
2018-06-15T08:17:29.624Z,27.80
2018-06-15T08:18:29.516Z,31.00
2018-06-15T08:19:29.704Z,27.90
2018-06-15T08:20:29.938Z,26.90
2018-06-15T08:22:13.501Z,28.20
2018-06-15T08:23:57.743Z,32.40
2018-06-15T08:24:58.694Z,29.00
2018-06-15T08:25:58.033Z,33.30
2018-06-15T08:26:58.362Z,30.90
2018-06-15T08:27:59.137Z,30.80
2018-06-15T08:28:58.258Z,30.90
2018-06-15T08:29:58.368Z,29.80
2018-06-15T08:30:58.649Z,30.10
2018-06-15T08:31:58.583Z,29.60
2018-06-15T08:32:58.831Z,28.80
2018-06-15T08:33:58.838Z,36.50
2018-06-15T08:34:58.023Z,32.60
2018-06-15T08:35:58.129Z,33.00
2018-06-15T08:36:58.192Z,32.70
2018-06-15T08:37:58.185Z,30.10
2018-06-15T08:38:58.260Z,30.00
2018-06-15T08:40:20.212Z,34.30
2018-06-15T08:42:25.197Z,33.70
2018-06-15T08:43:26.305Z,31.20
2018-06-15T08:44:25.419Z,29.10
2018-06-15T08:45:25.690Z,30.50
2018-06-15T08:46:25.574Z,31.30
2018-06-15T08:47:25.824Z,30.40
2018-06-15T08:48:25.755Z,30.40
2018-06-15T08:49:25.968Z,28.70
2018-06-15T08:50:47.887Z,31.30
2018-06-15T08:52:54.347Z,29.10
2018-06-15T08:53:54.389Z,27.70
2018-06-15T08:54:54.230Z,29.60
2018-06-15T08:55:54.429Z,31.50
2018-06-15T08:56:54.474Z,27.40
2018-06-15T08:58:16.123Z,30.60
2018-06-15T08:59:16.759Z,28.80
2018-06-15T09:00:17.610Z,25.70
2018-06-15T09:01:16.685Z,27.60
2018-06-15T09:02:38.219Z,26.00
2018-06-15T09:03:39.377Z,30.50
2018-06-15T09:04:38.534Z,28.20
2018-06-15T09:06:00.654Z,27.70
2018-06-15T09:07:22.492Z,24.30
2018-06-15T09:08:23.246Z,25.10
2018-06-15T09:09:23.361Z,24.00
2018-06-15T09:10:44.219Z,28.00
2018-06-15T09:11:44.501Z,24.50
2018-06-15T09:12:44.601Z,23.50
2018-06-15T09:13:44.868Z,26.50
2018-06-15T09:14:45.284Z,27.70
2018-06-15T09:15:44.274Z,25.90
2018-06-15T09:16:44.786Z,24.30
2018-06-15T09:17:44.989Z,26.30
2018-06-15T09:18:45.131Z,24.20
2018-06-15T09:20:28.767Z,25.40
2018-06-15T09:22:12.647Z,26.30
2018-06-15T09:23:12.593Z,25.50
2018-06-15T09:24:57.124Z,23.80
2018-06-15T09:25:57.401Z,25.50
2018-06-15T09:26:57.621Z,27.60
2018-06-15T09:27:57.663Z,28.50
2018-06-15T09:28:57.989Z,24.10
2018-06-15T09:29:56.889Z,27.00
2018-06-15T09:31:20.078Z,26.50
2018-06-15T09:32:20.437Z,27.80
2018-06-15T09:33:20.358Z,30.60
2018-06-15T09:34:20.118Z,28.60
2018-06-15T09:35:41.959Z,27.10
2018-06-15T09:37:03.758Z,25.30
2018-06-15T09:38:04.806Z,25.90
2018-06-15T09:39:04.876Z,27.30
2018-06-15T09:40:06.312Z,24.90
2018-06-15T09:41:04.412Z,26.70
2018-06-15T09:42:04.415Z,27.80
2018-06-15T09:43:05.175Z,28.90
2018-06-15T09:44:26.030Z,26.40
2018-06-15T09:45:27.918Z,28.00
2018-06-15T09:46:26.899Z,28.40
2018-06-15T09:47:49.357Z,29.10
2018-06-15T09:48:49.892Z,30.00
2018-06-15T09:49:49.758Z,31.90
2018-06-15T09:50:49.599Z,29.10
2018-06-15T09:51:49.607Z,25.60
2018-06-15T09:52:49.723Z,24.60
2018-06-15T09:53:49.833Z,23.60
2018-06-15T09:54:49.875Z,26.00
2018-06-15T09:56:12.029Z,24.80
2018-06-15T09:57:12.065Z,22.80
2018-06-15T09:58:11.950Z,31.80
2018-06-15T09:59:13.004Z,28.30
2018-06-15T10:00:12.260Z,28.80
2018-06-15T10:01:37.380Z,27.10
2018-06-15T10:02:37.147Z,25.70
2018-06-15T10:03:59.042Z,32.40
2018-06-15T10:05:44.708Z,26.60
2018-06-15T10:07:06.978Z,27.40
2018-06-15T10:08:06.982Z,27.10
2018-06-15T10:09:07.812Z,22.20
2018-06-15T10:10:28.459Z,23.80
2018-06-15T10:11:51.525Z,23.10
2018-06-15T10:12:51.672Z,28.90
2018-06-15T10:13:51.693Z,23.30
2018-06-15T10:14:51.979Z,25.50
2018-06-15T10:15:51.890Z,25.00
2018-06-15T10:17:14.042Z,27.60
2018-06-15T10:18:14.664Z,28.30
2018-06-15T10:19:14.763Z,25.80
2018-06-15T10:20:15.050Z,25.00
2018-06-15T10:21:36.013Z,24.20
2018-06-15T10:22:36.830Z,24.40
2018-06-15T10:24:22.169Z,22.30
2018-06-15T10:25:22.125Z,20.90
2018-06-15T10:26:22.033Z,18.90
2018-06-15T10:27:22.375Z,20.60
2018-06-15T10:28:24.556Z,19.60
2018-06-15T10:29:45.076Z,19.20
2018-06-15T10:30:45.125Z,16.50
2018-06-15T10:31:44.767Z,16.80
2018-06-15T10:32:45.756Z,16.60
2018-06-15T10:33:44.650Z,16.60
2018-06-15T10:34:44.612Z,18.70
2018-06-15T10:35:44.782Z,18.60
2018-06-15T10:36:44.857Z,17.70
2018-06-15T10:37:45.171Z,17.60
2018-06-15T10:38:45.229Z,21.40
2018-06-15T10:39:44.194Z,19.90
2018-06-15T10:40:45.091Z,16.20
2018-06-15T10:41:46.087Z,17.10
2018-06-15T10:42:46.228Z,18.00
2018-06-15T10:43:44.225Z,20.30
2018-06-15T10:44:44.448Z,20.80
2018-06-15T10:45:44.531Z,21.10
2018-06-15T10:46:44.826Z,23.40
2018-06-15T10:47:44.844Z,20.20
2018-06-15T10:48:45.084Z,21.40
2018-06-15T10:49:43.980Z,20.00
2018-06-15T10:50:44.818Z,23.60
2018-06-15T10:51:44.728Z,19.40
2018-06-15T10:52:44.788Z,20.10
2018-06-15T10:53:44.764Z,21.10
2018-06-15T10:55:06.410Z,18.80
2018-06-15T10:56:07.515Z,21.30
2018-06-15T10:57:06.319Z,18.40
2018-06-15T10:58:07.324Z,19.90
2018-06-15T10:59:07.603Z,18.40
2018-06-15T11:00:06.546Z,16.70
2018-06-15T11:01:06.583Z,15.80
2018-06-15T11:02:07.250Z,16.20
2018-06-15T11:03:07.220Z,15.60
2018-06-15T11:04:07.213Z,14.30
2018-06-15T11:05:07.846Z,14.90
2018-06-15T11:06:06.800Z,14.30
2018-06-15T11:07:08.446Z,17.30
2018-06-15T11:08:06.634Z,14.60
2018-06-15T11:09:07.510Z,15.40
2018-06-15T11:10:07.187Z,17.40
2018-06-15T11:11:07.510Z,14.80
2018-06-15T11:12:06.511Z,13.30
2018-06-15T11:13:06.666Z,12.50
2018-06-15T11:14:51.851Z,16.20
2018-06-15T11:16:14.862Z,16.00
2018-06-15T11:17:37.563Z,13.70
2018-06-15T11:18:38.340Z,15.90
2018-06-15T11:19:37.542Z,15.10
2018-06-15T11:20:37.809Z,14.30
2018-06-15T11:21:38.314Z,14.60
2018-06-15T11:22:59.983Z,12.90
2018-06-15T11:24:10.204Z,13.90
2018-06-15T11:25:00.336Z,14.00
2018-06-15T11:26:00.481Z,14.80
2018-06-15T11:27:00.772Z,15.70
2018-06-15T11:28:00.026Z,15.30
2018-06-15T11:29:01.770Z,13.90
2018-06-15T11:30:00.943Z,13.60
2018-06-15T11:31:23.998Z,15.00
2018-06-15T11:32:23.964Z,17.20
2018-06-15T11:33:24.669Z,12.40
2018-06-15T11:34:47.226Z,12.20
2018-06-15T11:35:48.440Z,12.50
2018-06-15T11:36:47.585Z,14.00
2018-06-15T11:37:47.665Z,12.20
2018-06-15T11:38:49.101Z,11.80
2018-06-15T11:40:33.101Z,12.90
2018-06-15T11:42:17.172Z,13.50
2018-06-15T11:43:40.766Z,12.40
2018-06-15T11:44:40.140Z,12.30
2018-06-15T11:45:40.709Z,13.20
2018-06-15T11:46:40.864Z,13.30
2018-06-15T11:47:41.774Z,13.30
2018-06-15T11:48:39.463Z,12.90
2018-06-15T11:49:41.830Z,14.80
2018-06-15T11:50:40.999Z,13.40
2018-06-15T11:52:24.963Z,11.90
2018-06-15T11:53:25.484Z,14.40
2018-06-15T11:54:25.964Z,13.50
2018-06-15T11:55:27.444Z,11.30
2018-06-15T11:56:24.922Z,10.90
2018-06-15T11:57:48.542Z,13.40
2018-06-15T11:58:48.733Z,12.20
2018-06-15T11:59:49.104Z,11.20
2018-06-15T12:01:11.191Z,11.80
2018-06-15T12:02:12.099Z,14.00
2018-06-15T12:03:33.363Z,14.20
2018-06-15T12:04:33.469Z,11.70
2018-06-15T12:05:33.436Z,13.00
2018-06-15T12:06:33.654Z,11.20
2018-06-15T12:07:56.717Z,12.40
2018-06-15T12:09:19.205Z,11.10
2018-06-15T12:10:19.667Z,11.60
2018-06-15T12:11:19.756Z,11.60
2018-06-15T12:12:20.394Z,12.00
2018-06-15T12:14:04.005Z,11.50
2018-06-15T12:15:04.985Z,12.50
2018-06-15T12:16:04.125Z,13.20
2018-06-15T12:17:04.236Z,12.00
2018-06-15T12:18:29.119Z,11.90
2018-06-15T12:19:30.387Z,11.20
2018-06-15T12:20:29.417Z,11.50
2018-06-15T12:21:52.241Z,13.50
2018-06-15T12:22:52.155Z,12.10
2018-06-15T12:23:52.600Z,12.80
2018-06-15T12:24:52.650Z,12.20
2018-06-15T12:25:52.928Z,12.20
2018-06-15T12:26:52.107Z,11.20
2018-06-15T12:27:52.536Z,12.50
2018-06-15T12:28:52.700Z,11.90
2018-06-15T12:29:52.634Z,16.20
2018-06-15T12:30:53.406Z,13.30
2018-06-15T12:31:52.680Z,11.70
2018-06-15T12:32:52.967Z,10.60
2018-06-15T12:34:16.253Z,10.70
2018-06-15T12:35:16.825Z,11.20
2018-06-15T12:36:17.180Z,12.00
2018-06-15T12:37:16.294Z,10.40
2018-06-15T12:38:16.480Z,11.00
2018-06-15T12:39:16.429Z,9.60
2018-06-15T12:40:16.481Z,9.40
2018-06-15T12:41:16.662Z,10.80
2018-06-15T12:43:01.179Z,12.20
2018-06-15T12:44:01.515Z,12.10
2018-06-15T12:45:23.353Z,11.30
2018-06-15T12:46:23.577Z,10.60
2018-06-15T12:47:23.742Z,11.60
2018-06-15T12:48:24.043Z,11.40
2018-06-15T12:49:24.060Z,11.80
2018-06-15T12:50:23.136Z,10.10
2018-06-15T12:51:23.960Z,9.30
2018-06-15T12:52:24.587Z,11.90
2018-06-15T12:54:08.283Z,10.90
2018-06-15T12:55:08.400Z,12.20
2018-06-15T12:56:08.436Z,12.00
2018-06-15T12:57:07.772Z,14.00
2018-06-15T12:58:33.532Z,12.90
2018-06-15T12:59:36.644Z,13.40
2018-06-15T13:00:32.053Z,9.30
2018-06-15T13:01:32.152Z,9.90
2018-06-15T13:02:33.626Z,9.90
2018-06-15T13:03:53.725Z,9.60
2018-06-15T13:04:55.059Z,42.90
2018-06-15T13:06:50.033Z,8.30
2018-06-15T13:07:50.765Z,9.90
2018-06-15T13:08:51.677Z,9.40
2018-06-15T13:09:49.035Z,12.90
2018-06-15T13:10:48.183Z,9.30
2018-06-15T13:11:48.803Z,10.60
2018-06-15T13:12:50.515Z,11.60
2018-06-15T13:13:51.006Z,8.70
2018-06-15T13:14:48.494Z,8.40
2018-06-15T13:15:54.534Z,10.20
2018-06-15T13:16:50.717Z,9.60
2018-06-15T13:17:55.631Z,9.90
2018-06-15T13:18:49.675Z,8.70
2018-06-15T13:19:48.998Z,12.60
2018-06-15T13:20:48.436Z,10.40
2018-06-15T13:21:48.670Z,10.90
2018-06-15T13:22:49.163Z,10.80
2018-06-15T13:23:48.332Z,11.70
2018-06-15T13:24:48.705Z,10.70
2018-06-15T13:25:48.964Z,12.80
2018-06-15T13:26:50.171Z,11.70
2018-06-15T13:27:48.550Z,11.70
2018-06-15T13:28:48.924Z,12.20
2018-06-15T13:29:49.415Z,11.60
2018-06-15T13:30:48.772Z,16.50
2018-06-15T13:31:48.405Z,11.00
2018-06-15T13:32:49.580Z,14.20
2018-06-15T13:33:49.863Z,14.70
2018-06-15T13:34:49.297Z,11.70
2018-06-15T13:36:10.857Z,13.10
2018-06-15T13:37:11.284Z,12.80
2018-06-15T13:38:10.480Z,11.10
2018-06-15T13:39:32.600Z,11.10
2018-06-15T13:40:33.049Z,11.60
2018-06-15T13:41:33.366Z,10.60
2018-06-15T13:42:54.778Z,10.10
2018-06-15T13:43:55.195Z,11.40
2018-06-15T13:44:57.024Z,9.70
2018-06-15T13:45:55.936Z,10.00
2018-06-15T13:46:54.980Z,9.00
2018-06-15T13:47:54.698Z,8.90
2018-06-15T13:48:54.869Z,9.10
2018-06-15T13:49:55.276Z,10.20
2018-06-15T13:50:55.549Z,9.10
2018-06-15T13:51:59.504Z,10.80
2018-06-15T13:52:58.997Z,11.10
2018-06-15T13:53:55.443Z,13.50